< Cyclone 201111 2011 Season Cyclone 201114 >
Cyclone 201112 (Bianca)
General InformationTrack Information on Google MapsDetailed Wind InformationList of All Images || ResourceGoogle EarthGE AnimationAtom FeedGeoJSON
Detalied Best Track (Time Zone = UTC)
Year Month Day Hour Lat. Long. Pressure (hPa) Wind (kt) Class Image Chart
2011 1 21 00 -15.9 129.0 1000 10 2 Image --
2011 1 21 06 -15.5 129.4 1000 10 2 Image --
2011 1 21 12 -15.3 129.3 1000 10 2 Image --
2011 1 21 18 -15.1 129.1 1000 10 2 Image --
2011 1 22 00 -14.9 129.0 1000 10 2 Image --
2011 1 22 06 -14.6 129.4 1000 15 2 Image --
2011 1 22 12 -14.7 129.3 1000 20 2 Image --
2011 1 22 18 -14.4 128.7 1000 25 2 Image --
2011 1 23 00 -14.2 129.0 1000 25 2 Image --
2011 1 23 06 -14.2 129.1 1000 25 2 Image --
2011 1 23 12 -14.3 129.1 1000 25 2 Image --
2011 1 23 18 -14.4 128.4 1000 25 2 Image --
2011 1 24 00 -14.6 126.9 1000 20 2 Image --
2011 1 24 06 -14.7 126.5 999 20 2 Image --
2011 1 24 12 -14.9 126.0 999 20 2 Image --
2011 1 24 18 -15.6 125.0 999 20 2 Image --
2011 1 25 00 -16.2 124.0 999 20 2 Image --
2011 1 25 06 -16.6 123.1 995 30 2 Image --
2011 1 25 12 -17.1 121.7 994 30 2 Image --
2011 1 25 18 -17.8 120.7 989 40 3 Image --
2011 1 26 00 -18.7 119.5 986 50 4 Image --
2011 1 26 06 -19.2 118.1 983 50 4 Image --
2011 1 26 12 -19.0 116.9 979 55 4 Image --
2011 1 26 18 -19.3 115.8 979 55 4 Image --
2011 1 27 00 -19.6 115.0 979 55 4 Image --
2011 1 27 06 -20.1 114.0 970 65 5 Image --
2011 1 27 12 -20.8 112.9 966 75 5 Image --
2011 1 27 18 -21.6 111.5 951 90 5 Image --
2011 1 28 00 -22.7 110.1 949 95 5 Image --
2011 1 28 06 -23.8 108.8 950 90 5 Image --
2011 1 28 12 -24.8 108.3 950 90 5 Image --
2011 1 28 18 -26.2 108.0 968 70 5 Image --
2011 1 29 00 -27.5 107.8 971 65 5 Image --
2011 1 29 06 -28.9 108.3 973 65 5 Image --
2011 1 29 12 -29.7 109.5 982 50 4 Image --
2011 1 29 18 -30.2 110.9 994 35 3 Image --
2011 1 30 00 -30.8 112.3 999 30 2 Image --
2011 1 30 06 -31.4 113.4 1000 20 2 Image --
< Cyclone 201111 2011 Season Cyclone 201114 >

Help